• Join FlightAware (Why Join?)
  • Login
  • US Flag 
07:24AM EDT


 

Airport Tracker/Info


-or-


 

Live Flight TrackerFlight Track Log ✈ WJA299 ✈ 01-May-2012 ✈ CYYZ - CYWG

Flight Track Log - Related Links

Times and Time Zones

All times are in EDT time to prevent confusion due to time zone crossing. See the WJA299 flight status page for this flight to view local times or setup timezone preferences in your user account.

Time Position Orientation Groundspeed Altitude Reporting Facility
EDT Latitude Longitude Course Direction KTS MPH feet Rate Location/Type
06:08PM 43.6500 -79.6833 235° Southwest 170 196 2,200  Level Toronto Center
06:09PM 43.6167 -79.7500 316° Northwest 210 242 4,600 2,220 Climbing Toronto Center
06:10PM 43.6667 -79.8167 316° Northwest 250 288 6,700 2,400 Climbing Toronto Center
06:11PM 43.7167 -79.8833 313° West 260 299 9,500 2,400 Climbing Toronto Center
06:12PM 43.7833 -79.9833 318° Northwest 290 334 11,600 2,580 Climbing Toronto Center
06:13PM 43.8500 -80.0667 313° West 330 380 14,700 3,240 Climbing Toronto Center
06:14PM 43.9167 -80.1667 308° West 350 403 18,100 3,000 Climbing Toronto Center
06:15PM 43.9833 -80.2833 298° West 370 426 20,800 2,760 Climbing Toronto Center
06:16PM 44.0333 -80.4167 301° West 380 437 23,700 2,400 Climbing Toronto Center
06:17PM 44.0833 -80.5333 295° West 390 449 25,600 2,040 Climbing Toronto Center
06:18PM 44.1333 -80.6833 298° West 410 472 27,800 2,220 Climbing Toronto Center
06:19PM 44.1833 -80.8167 287° West 410 472 30,100 2,400 Climbing Toronto Center
06:20PM 44.2167 -80.9667 298° West 410 472 32,600 2,400 Climbing Toronto Center
06:21PM 44.2667 -81.1000 301° West 390 449 35,000 2,100 Climbing Toronto Center
06:22PM 44.3167 -81.2167 295° West 380 437 36,900 1,560 Climbing Toronto Center
06:23PM 44.3667 -81.3667 301° West 370 426 38,200 1,200 Climbing Toronto Center
06:24PM 44.4167 -81.4833 298° West 360 414 39,400 900 Climbing Toronto Center
06:25PM 44.4667 -81.6167 301° West 370 426 40,000 300 Climbing Toronto Center
06:26PM 44.5167 -81.7333 295° West 370 426 40,000  Level Toronto Center
06:27PM 44.5667 -81.8833 292° West 370 426 40,000  Level Toronto Center
06:28PM 44.6000 -82.0000 298° West 380 437 40,000  Level Toronto Center
06:29PM 44.6500 -82.1333 298° West 380 437 40,000  Level Toronto Center
06:30PM 44.7000 -82.2667 298° West 380 437 40,000  Level Toronto Center
06:31PM 44.7500 -82.4000 295° West 390 449 40,000  Level Toronto Center
06:32PM 44.8000 -82.5500 301° West 380 437 40,000  Level Toronto Center
06:33PM 44.8500 -82.6667 287° West 380 437 40,000  Level Toronto Center
06:34PM 44.8833 -82.8167 298° West 390 449 40,000  Level Toronto Center
06:35PM 44.9333 -82.9500 304° West 390 449 40,000  Level Toronto Center
06:35PM 44.9606 -83.0069 296° West 385 443 40,000  Level Minneapolis Center
06:36PM 45.0067 -83.1431 296° West 390 449 40,000  Level Minneapolis Center
06:37PM 45.0547 -83.2819 297° West 390 449 40,000  Level Minneapolis Center
06:38PM 45.1106 -83.4372 295° West 396 456 40,000  Level Minneapolis Center
06:39PM 45.1564 -83.5767 296° West 396 456 40,000  Level Minneapolis Center
06:40PM 45.2039 -83.7133 296° West 396 456 40,000  Level Minneapolis Center
06:41PM 45.2514 -83.8531 295° West 396 456 40,000  Level Minneapolis Center
06:42PM 45.2967 -83.9906 296° West 396 456 40,000  Level Minneapolis Center
06:43PM 45.3436 -84.1278 301° West 396 456 40,000  Level Minneapolis Center
06:44PM 45.3667 -84.1833 288° West 380 437 40,000  Level Toronto Center
06:45PM 45.4000 -84.3333 298° West 380 437 40,000  Level Toronto Center
06:46PM 45.4500 -84.4667 298° West 380 437 40,000  Level Toronto Center
06:47PM 45.5000 -84.6000 294° West 380 437 40,000  Level Toronto Center
06:47PM 45.5206 -84.6661 295° West 384 442 40,000  Level Minneapolis Center
06:48PM 45.5669 -84.8075 295° West 384 442 40,000  Level Minneapolis Center
06:49PM 45.6106 -84.9406 294° West 384 442 40,000  Level Minneapolis Center
06:50PM 45.6542 -85.0800 294° West 384 442 40,000  Level Minneapolis Center
06:51PM 45.6981 -85.2194 295° West 384 442 40,000  Level Minneapolis Center
06:52PM 45.7433 -85.3558 294° West 384 442 40,000  Level Minneapolis Center
06:53PM 45.7867 -85.4958 295° West 384 442 40,000  Level Minneapolis Center
06:54PM 45.8319 -85.6386 294° West 384 442 40,000  Level Minneapolis Center
06:55PM 45.8747 -85.7761 295° West 384 442 40,000  Level Minneapolis Center
06:56PM 45.9197 -85.9164 293° West 384 442 40,000  Level Minneapolis Center
06:57PM 45.9603 -86.0575 295° West 384 442 40,000  Level Minneapolis Center
06:58PM 46.0047 -86.1956 292° West 384 442 40,000  Level Minneapolis Center
06:59PM 46.0453 -86.3431 292° West 390 449 40,000  Level Minneapolis Center
07:00PM 46.0856 -86.4847 294° West 390 449 40,000  Level Minneapolis Center
07:01PM 46.1242 -86.6089 295° West 378 435 40,000  Level Minneapolis Center
07:02PM 46.1728 -86.7592 294° West 378 435 40,000  Level Minneapolis Center
07:03PM 46.2142 -86.8953 293° West 378 435 40,000  Level Minneapolis Center
07:04PM 46.2533 -87.0319 294° West 378 435 40,000  Level Minneapolis Center
07:05PM 46.2942 -87.1656 293° West 383 441 40,000  Level Minneapolis Center
07:06PM 46.3350 -87.3056 296° West 383 441 40,000  Level Minneapolis Center
07:07PM 46.3794 -87.4361 304° West 383 441 40,000  Level Minneapolis Center
07:08PM 46.4361 -87.5597 302° West 373 429 40,000  Level Minneapolis Center
07:09PM 46.4906 -87.6867 301° West 368 423 40,000  Level Minneapolis Center
07:10PM 46.5403 -87.8053 303° West 373 429 40,000  Level Minneapolis Center
07:11PM 46.5964 -87.9325 302° West 373 429 40,000  Level Minneapolis Center
07:12PM 46.6506 -88.0603 301° West 373 429 40,000  Level Minneapolis Center
07:13PM 46.7022 -88.1856 303° West 368 423 40,000  Level Minneapolis Center
07:14PM 46.7650 -88.3281 301° West 376 433 40,000  Level Minneapolis Center
07:15PM 46.8139 -88.4450 302° West 376 433 40,000  Level Minneapolis Center
07:16PM 46.8694 -88.5764 302° West 376 433 40,000  Level Minneapolis Center
07:17PM 46.9250 -88.7083 302° West 376 433 40,000  Level Minneapolis Center
07:18PM 46.9803 -88.8375 302° West 376 433 40,000  Level Minneapolis Center
07:19PM 47.0356 -88.9700 301° West 376 433 40,000  Level Minneapolis Center
07:20PM 47.0908 -89.1028 300° West 381 438 40,000  Level Minneapolis Center
07:21PM 47.1436 -89.2389 301° West 381 438 40,000  Level Minneapolis Center
07:22PM 47.1986 -89.3722 301° West 386 444 40,000  Level Minneapolis Center
07:23PM 47.2531 -89.5058 302° West 386 444 40,000  Level Minneapolis Center
07:24PM 47.3097 -89.6394 299° West 386 444 40,000  Level Minneapolis Center
07:25PM 47.3622 -89.7767 301° West 386 444 40,000  Level Minneapolis Center
07:26PM 47.4164 -89.9111 303° West 386 444 40,000  Level Minneapolis Center
07:27PM 47.4722 -90.0394 298° West 386 444 40,000  Level Minneapolis Center
07:28PM 47.5222 -90.1808 300° West 384 442 40,000  Level Minneapolis Center
07:29PM 47.5758 -90.3192 304° West 389 448 40,000  Level Minneapolis Center
07:30PM 47.6336 -90.4483 299° West 384 442 40,000  Level Minneapolis Center
07:31PM 47.6828 -90.5811 301° West 379 436 40,000  Level Minneapolis Center
07:32PM 47.7381 -90.7200 301° West 379 436 40,000  Level Minneapolis Center
07:33PM 47.7933 -90.8594 300° West 384 442 40,000  Level Minneapolis Center
07:34PM 47.8483 -90.9989 291° West 384 442 40,000  Level Minneapolis Center
07:35PM 47.8833 -91.1333 304° West 380 437 40,000  Level Winnipeg Center
07:36PM 47.9500 -91.2833 299° West 380 437 40,000  Level Winnipeg Center
07:37PM 48.0000 -91.4167 288° West 380 437 40,000  Level Winnipeg Center
07:38PM 48.0333 -91.5667 311° West 380 437 40,000  Level Winnipeg Center
07:39PM 48.1000 -91.6833 297° West 370 426 40,000  Level Winnipeg Center
07:40PM 48.1500 -91.8333 306° West 380 437 40,000  Level Winnipeg Center
07:41PM 48.2167 -91.9722 299° West 384 442 40,000  Level Minneapolis Center
07:42PM 48.2683 -92.1142 299° West 384 442 40,000  Level Minneapolis Center
07:43PM 48.3197 -92.2564 300° West 384 442 40,000  Level Minneapolis Center
07:44PM 48.3711 -92.3928 296° West 384 442 40,000  Level Minneapolis Center
07:45PM 48.4167 -92.5333 289° West 380 437 40,000  Level Winnipeg Center
07:46PM 48.4500 -92.6833 311° West 380 437 40,000  Level Winnipeg Center
07:47PM 48.5167 -92.8000 297° West 380 437 40,000  Level Winnipeg Center
07:48PM 48.5667 -92.9500 289° West 380 437 40,000  Level Winnipeg Center
07:49PM 48.6000 -93.1000 304° West 390 449 40,000  Level Winnipeg Center
07:50PM 48.6667 -93.2500 297° West 390 449 40,000  Level Winnipeg Center
07:51PM 48.7167 -93.4000 300° West 390 449 40,000  Level Winnipeg Center
07:52PM 48.7667 -93.5333 304° West 390 449 40,000  Level Winnipeg Center
07:53PM 48.8333 -93.6833 289° West 400 460 40,000  Level Winnipeg Center
07:54PM 48.8667 -93.8333 297° West 400 460 40,000  Level Winnipeg Center
07:55PM 48.9167 -93.9833 300° West 390 449 40,000  Level Winnipeg Center
07:56PM 48.9667 -94.1167 301° West 390 449 40,000  Level Winnipeg Center
07:57PM 49.0333 -94.2833 300° West 390 449 40,000  Level Winnipeg Center
07:58PM 49.0833 -94.4167 295° West 400 460 40,000 -480 Level Winnipeg Center
07:59PM 49.1333 -94.5833 291° West 400 460 39,100 -1,740 Descending Winnipeg Center
08:00PM 49.1667 -94.7167 297° West 390 449 36,600 -2,400 Descending Winnipeg Center
08:01PM 49.2167 -94.8667 304° West 390 449 34,400 -2,160 Descending Winnipeg Center
08:02PM 49.2833 -95.0167 291° West 370 426 32,300 -2,040 Descending Winnipeg Center
08:03PM 49.3167 -95.1500 303° West 350 403 30,400 -1,920 Descending Winnipeg Center
08:04PM 49.3667 -95.2667 291° West 350 403 28,500 -1,920 Descending Winnipeg Center
08:05PM 49.4000 -95.4000 297° West 360 414 26,600 -2,100 Descending Winnipeg Center
08:06PM 49.4500 -95.5500 291° West 370 426 24,400 -2,040 Descending Winnipeg Center
08:07PM 49.4833 -95.6833 297° West 350 403 22,600 -1,920 Descending Winnipeg Center
08:08PM 49.5333 -95.8333 291° West 350 403 20,600 -1,980 Descending Winnipeg Center
08:09PM 49.5667 -95.9667 294° West 340 391 18,700 -1,980 Descending Winnipeg Center
08:10PM 49.6000 -96.0833 300° West 340 391 16,700 -1,800 Descending Winnipeg Center
08:11PM 49.6500 -96.2167 291° West 320 368 15,100 -1,680 Descending Winnipeg Center
08:12PM 49.6833 -96.3500 284° West 310 357 13,400 -1,680 Descending Winnipeg Center
08:13PM 49.7000 -96.4500 281° West 290 334 11,800 -1,620 Descending Winnipeg Center
08:14PM 49.7167 -96.5833 270° West 280 322 10,200 -1,320 Descending Winnipeg Center
08:15PM 49.7167 -96.6833 270° West 260 299 9,200 -1,200 Descending Winnipeg Center
08:16PM 49.7167 -96.7833 284° West 250 288 7,900 -1,320 Descending Winnipeg Center
08:17PM 49.7333 -96.8833 270° West 250 288 6,600 -1,740 Descending Winnipeg Center
08:18PM 49.7333 -97.0167 270° West 270 311 4,500 -1,740 Descending Winnipeg Center
08:19PM 49.7333 -97.1167 281° West 270 311 3,200 -780 Descending Winnipeg Center
08:20PM 49.7500 -97.2500 360° North 250 288 3,000 -420 Descending Winnipeg Center
08:21PM 49.8000 -97.2500 360° North 210 242 2,400 -720 Descending Winnipeg Center
08:22PM 49.8333 -97.2500 12° North 160 184 1,600 -780 Descending Winnipeg Center
08:23PM 49.8833 -97.2333 12° North 140 161 900 -720 Descending Winnipeg Center